Reno (RNO/KRNO)

Information

Location
Reno, NV
Local Time
19:24 / 7:24 pm
GMT Time
02:24 / 2:24 am
Gates
Unassigned
No FAA reported delays
METAR KRNO 280155Z 35015KT 10SM SCT065 09/M07 A3019 RMK AO2 SLP215 T00891067
TAF KRNO 272323Z 2800/2824 34011G20KT P6SM VCSH FEW040 BKN070 FM280300 34006KT P6SM FEW040 SCT200 FM282100 04006KT P6SM FEW040 SCT200
  • No charts available